sensor_id;sensor_type;location;lat;lon;timestamp;pressure;altitude;pressure_sealevel;temperature;humidity
74895;BME280;63447;49.446;8.666;2023-05-20T00:01:39;100602.28;;;15.21;55.29
74895;BME280;63447;49.446;8.666;2023-05-20T00:04:05;100614.91;;;15.18;55.02
74895;BME280;63447;49.446;8.666;2023-05-20T00:06:30;100615.47;;;15.24;55.08
74895;BME280;63447;49.446;8.666;2023-05-20T00:08:56;100608.66;;;15.21;55.42
74895;BME280;63447;49.446;8.666;2023-05-20T00:11:24;100583.00;;;15.12;54.95
74895;BME280;63447;49.446;8.666;2023-05-20T00:13:52;100568.47;;;15.03;55.75
74895;BME280;63447;49.446;8.666;2023-05-20T00:16:17;100593.03;;;15.17;55.74
74895;BME280;63447;49.446;8.666;2023-05-20T00:18:45;100594.75;;;15.21;55.78
74895;BME280;63447;49.446;8.666;2023-05-20T00:21:10;100582.66;;;15.30;55.54
74895;BME280;63447;49.446;8.666;2023-05-20T00:23:37;100589.03;;;15.30;56.21
74895;BME280;63447;49.446;8.666;2023-05-20T00:26:03;100576.72;;;15.15;56.24
74895;BME280;63447;49.446;8.666;2023-05-20T00:28:28;100588.94;;;15.26;56.72
74895;BME280;63447;49.446;8.666;2023-05-20T00:30:54;100572.16;;;15.23;56.89
74895;BME280;63447;49.446;8.666;2023-05-20T00:33:20;100577.81;;;15.26;56.18
74895;BME280;63447;49.446;8.666;2023-05-20T00:35:45;100584.63;;;15.29;57.04
74895;BME280;63447;49.446;8.666;2023-05-20T00:38:10;100590.09;;;15.25;56.91
74895;BME280;63447;49.446;8.666;2023-05-20T00:40:36;100578.16;;;15.25;57.09
74895;BME280;63447;49.446;8.666;2023-05-20T00:43:03;100582.47;;;15.22;57.33
74895;BME280;63447;49.446;8.666;2023-05-20T00:45:31;100575.38;;;15.25;57.29
74895;BME280;63447;49.446;8.666;2023-05-20T00:47:57;100583.28;;;15.23;57.08
74895;BME280;63447;49.446;8.666;2023-05-20T00:50:27;100574.84;;;15.19;57.04
74895;BME280;63447;49.446;8.666;2023-05-20T00:52:53;100567.03;;;15.09;57.47
74895;BME280;63447;49.446;8.666;2023-05-20T00:55:20;100567.38;;;15.08;57.55
74895;BME280;63447;49.446;8.666;2023-05-20T00:57:45;100572.94;;;15.08;57.30
74895;BME280;63447;49.446;8.666;2023-05-20T01:00:11;100567.56;;;14.99;57.94
74895;BME280;63447;49.446;8.666;2023-05-20T01:02:38;100564.84;;;14.87;58.35
74895;BME280;63447;49.446;8.666;2023-05-20T01:05:03;100562.78;;;14.84;58.64
74895;BME280;63447;49.446;8.666;2023-05-20T01:07:29;100557.06;;;14.77;58.58
74895;BME280;63447;49.446;8.666;2023-05-20T01:09:55;100545.03;;;14.73;58.91
74895;BME280;63447;49.446;8.666;2023-05-20T01:12:41;100554.28;;;14.77;59.03
74895;BME280;63447;49.446;8.666;2023-05-20T01:15:13;100563.78;;;14.76;59.13
74895;BME280;63447;49.446;8.666;2023-05-20T01:17:43;100561.03;;;14.64;60.07
74895;BME280;63447;49.446;8.666;2023-05-20T01:20:13;100562.66;;;14.65;59.69
74895;BME280;63447;49.446;8.666;2023-05-20T01:22:55;100544.81;;;14.50;60.15
74895;BME280;63447;49.446;8.666;2023-05-20T01:25:21;100552.25;;;14.62;60.58
74895;BME280;63447;49.446;8.666;2023-05-20T01:27:47;100545.91;;;14.61;60.68
74895;BME280;63447;49.446;8.666;2023-05-20T01:30:14;100554.34;;;14.65;60.69
74895;BME280;63447;49.446;8.666;2023-05-20T01:32:54;100547.63;;;14.66;60.77
74895;BME280;63447;49.446;8.666;2023-05-20T01:35:22;100547.16;;;14.64;60.87
74895;BME280;63447;49.446;8.666;2023-05-20T01:37:51;100535.94;;;14.60;60.44
74895;BME280;63447;49.446;8.666;2023-05-20T01:40:18;100530.84;;;14.62;60.67
74895;BME280;63447;49.446;8.666;2023-05-20T01:42:44;100541.97;;;14.62;60.51
74895;BME280;63447;49.446;8.666;2023-05-20T01:45:12;100536.50;;;14.66;60.42
74895;BME280;63447;49.446;8.666;2023-05-20T01:47:37;100545.28;;;14.68;60.90
74895;BME280;63447;49.446;8.666;2023-05-20T01:50:03;100540.53;;;14.68;60.99
74895;BME280;63447;49.446;8.666;2023-05-20T01:52:29;100546.31;;;14.75;60.63
74895;BME280;63447;49.446;8.666;2023-05-20T01:54:57;100538.88;;;14.79;60.38
74895;BME280;63447;49.446;8.666;2023-05-20T01:57:22;100508.06;;;14.56;60.96
74895;BME280;63447;49.446;8.666;2023-05-20T01:59:50;100529.72;;;14.79;60.49
74895;BME280;63447;49.446;8.666;2023-05-20T02:02:15;100526.75;;;14.72;60.72
74895;BME280;63447;49.446;8.666;2023-05-20T02:04:47;100524.25;;;14.67;60.59
74895;BME280;63447;49.446;8.666;2023-05-20T02:07:16;100523.97;;;14.72;60.74
74895;BME280;63447;49.446;8.666;2023-05-20T02:09:43;100542.16;;;14.69;61.44
74895;BME280;63447;49.446;8.666;2023-05-20T02:12:08;100535.09;;;14.72;60.81
74895;BME280;63447;49.446;8.666;2023-05-20T02:14:45;100543.88;;;14.74;61.06
74895;BME280;63447;49.446;8.666;2023-05-20T02:17:11;100546.91;;;14.84;60.43
74895;BME280;63447;49.446;8.666;2023-05-20T02:19:38;100531.34;;;14.80;60.83
74895;BME280;63447;49.446;8.666;2023-05-20T02:22:05;100532.31;;;14.87;60.39
74895;BME280;63447;49.446;8.666;2023-05-20T02:24:30;100540.31;;;14.89;60.84
74895;BME280;63447;49.446;8.666;2023-05-20T02:26:55;100528.28;;;14.85;60.76
74895;BME280;63447;49.446;8.666;2023-05-20T02:29:23;100530.53;;;14.95;60.45
74895;BME280;63447;49.446;8.666;2023-05-20T02:31:50;100523.63;;;14.89;60.61
74895;BME280;63447;49.446;8.666;2023-05-20T02:34:16;100531.78;;;14.82;60.51
74895;BME280;63447;49.446;8.666;2023-05-20T02:36:44;100520.75;;;14.85;60.48
74895;BME280;63447;49.446;8.666;2023-05-20T02:39:12;100515.50;;;14.80;59.99
74895;BME280;63447;49.446;8.666;2023-05-20T02:41:37;100528.19;;;14.81;61.06
74895;BME280;63447;49.446;8.666;2023-05-20T02:44:03;100525.94;;;14.71;61.40
74895;BME280;63447;49.446;8.666;2023-05-20T02:46:29;100498.13;;;14.55;61.51
74895;BME280;63447;49.446;8.666;2023-05-20T02:48:55;100509.28;;;14.71;61.54
74895;BME280;63447;49.446;8.666;2023-05-20T02:51:23;100504.88;;;14.54;61.95
74895;BME280;63447;49.446;8.666;2023-05-20T02:53:48;100512.78;;;14.40;62.04
74895;BME280;63447;49.446;8.666;2023-05-20T02:56:13;100508.28;;;14.36;62.77
74895;BME280;63447;49.446;8.666;2023-05-20T02:58:45;100521.34;;;14.35;63.00
74895;BME280;63447;49.446;8.666;2023-05-20T03:01:11;100511.81;;;14.20;62.96
74895;BME280;63447;49.446;8.666;2023-05-20T03:03:36;100509.66;;;14.14;62.84
74895;BME280;63447;49.446;8.666;2023-05-20T03:06:02;100513.47;;;14.09;63.03
74895;BME280;63447;49.446;8.666;2023-05-20T03:08:29;100511.41;;;14.06;63.26
74895;BME280;63447;49.446;8.666;2023-05-20T03:10:55;100516.94;;;14.06;63.27
74895;BME280;63447;49.446;8.666;2023-05-20T03:13:22;100506.72;;;13.82;63.25
74895;BME280;63447;49.446;8.666;2023-05-20T03:15:50;100519.91;;;13.85;63.50
74895;BME280;63447;49.446;8.666;2023-05-20T03:18:18;100523.25;;;13.79;64.01
74895;BME280;63447;49.446;8.666;2023-05-20T03:20:46;100515.22;;;13.74;64.29
74895;BME280;63447;49.446;8.666;2023-05-20T03:23:12;100520.41;;;13.75;64.73
74895;BME280;63447;49.446;8.666;2023-05-20T03:25:38;100530.88;;;13.82;64.63
74895;BME280;63447;49.446;8.666;2023-05-20T03:28:04;100515.09;;;13.70;64.80
74895;BME280;63447;49.446;8.666;2023-05-20T03:30:31;100517.28;;;13.77;64.70
74895;BME280;63447;49.446;8.666;2023-05-20T03:32:57;100517.88;;;13.70;64.61
74895;BME280;63447;49.446;8.666;2023-05-20T03:35:22;100527.19;;;13.78;64.72
74895;BME280;63447;49.446;8.666;2023-05-20T03:37:51;100516.72;;;13.71;65.14
74895;BME280;63447;49.446;8.666;2023-05-20T03:40:17;100524.91;;;13.68;65.36
74895;BME280;63447;49.446;8.666;2023-05-20T03:42:44;100535.06;;;13.76;65.30
74895;BME280;63447;49.446;8.666;2023-05-20T03:45:10;100530.34;;;13.76;65.50
74895;BME280;63447;49.446;8.666;2023-05-20T03:47:35;100543.81;;;13.78;65.26
74895;BME280;63447;49.446;8.666;2023-05-20T03:50:03;100531.50;;;13.63;65.00
74895;BME280;63447;49.446;8.666;2023-05-20T03:52:31;100536.22;;;13.63;65.75
74895;BME280;63447;49.446;8.666;2023-05-20T03:54:56;100537.75;;;13.60;66.01
74895;BME280;63447;49.446;8.666;2023-05-20T03:57:31;100538.09;;;13.58;66.23
74895;BME280;63447;49.446;8.666;2023-05-20T03:59:58;100527.00;;;13.58;66.08
74895;BME280;63447;49.446;8.666;2023-05-20T04:02:28;100535.88;;;13.64;66.02
74895;BME280;63447;49.446;8.666;2023-05-20T04:04:56;100539.69;;;13.72;65.67
74895;BME280;63447;49.446;8.666;2023-05-20T04:07:27;100537.75;;;13.72;66.29
74895;BME280;63447;49.446;8.666;2023-05-20T04:09:55;100524.09;;;13.67;66.13
74895;BME280;63447;49.446;8.666;2023-05-20T04:12:23;100541.78;;;13.75;65.85
74895;BME280;63447;49.446;8.666;2023-05-20T04:14:50;100540.47;;;13.84;66.06
74895;BME280;63447;49.446;8.666;2023-05-20T04:17:16;100544.41;;;13.83;66.06
74895;BME280;63447;49.446;8.666;2023-05-20T04:19:46;100543.94;;;13.81;65.28
74895;BME280;63447;49.446;8.666;2023-05-20T04:22:11;100542.81;;;13.70;65.47
74895;BME280;63447;49.446;8.666;2023-05-20T04:24:39;100542.81;;;13.70;65.88
74895;BME280;63447;49.446;8.666;2023-05-20T04:27:04;100536.69;;;13.65;65.56
74895;BME280;63447;49.446;8.666;2023-05-20T04:29:30;100542.72;;;13.67;66.08
74895;BME280;63447;49.446;8.666;2023-05-20T04:32:00;100545.47;;;13.67;66.67
74895;BME280;63447;49.446;8.666;2023-05-20T04:34:29;100537.84;;;13.64;66.53
74895;BME280;63447;49.446;8.666;2023-05-20T04:36:54;100548.72;;;13.69;66.81
74895;BME280;63447;49.446;8.666;2023-05-20T04:39:19;100544.78;;;13.70;66.66
74895;BME280;63447;49.446;8.666;2023-05-20T04:41:47;100539.25;;;13.70;66.46
74895;BME280;63447;49.446;8.666;2023-05-20T04:44:15;100532.88;;;13.69;66.77
74895;BME280;63447;49.446;8.666;2023-05-20T04:46:48;100543.41;;;13.76;66.90
74895;BME280;63447;49.446;8.666;2023-05-20T04:49:18;100530.69;;;13.75;66.59
74895;BME280;63447;49.446;8.666;2023-05-20T04:51:46;100522.72;;;13.73;67.10
74895;BME280;63447;49.446;8.666;2023-05-20T04:54:16;100516.25;;;13.69;66.86
74895;BME280;63447;49.446;8.666;2023-05-20T04:56:44;100531.69;;;13.82;66.95
74895;BME280;63447;49.446;8.666;2023-05-20T04:59:13;100531.91;;;13.89;66.85
74895;BME280;63447;49.446;8.666;2023-05-20T05:01:39;100532.03;;;13.93;66.62
74895;BME280;63447;49.446;8.666;2023-05-20T05:04:04;100516.88;;;13.90;66.72
74895;BME280;63447;49.446;8.666;2023-05-20T05:06:32;100515.94;;;13.99;66.47
74895;BME280;63447;49.446;8.666;2023-05-20T05:09:00;100514.69;;;13.96;66.44
74895;BME280;63447;49.446;8.666;2023-05-20T05:11:28;100513.28;;;14.02;66.03
74895;BME280;63447;49.446;8.666;2023-05-20T05:13:56;100505.38;;;14.04;66.84
74895;BME280;63447;49.446;8.666;2023-05-20T05:16:21;100506.94;;;14.02;66.30
74895;BME280;63447;49.446;8.666;2023-05-20T05:18:56;100512.91;;;14.04;66.53
74895;BME280;63447;49.446;8.666;2023-05-20T05:21:24;100517.06;;;14.10;67.06
74895;BME280;63447;49.446;8.666;2023-05-20T05:23:56;100505.50;;;14.08;66.73
74895;BME280;63447;49.446;8.666;2023-05-20T05:26:24;100513.38;;;14.06;67.11
74895;BME280;63447;49.446;8.666;2023-05-20T05:28:53;100515.88;;;14.23;66.65
74895;BME280;63447;49.446;8.666;2023-05-20T05:31:21;100505.81;;;14.18;66.22
74895;BME280;63447;49.446;8.666;2023-05-20T05:33:46;100502.78;;;14.23;66.90
74895;BME280;63447;49.446;8.666;2023-05-20T05:36:12;100510.06;;;14.28;65.98
74895;BME280;63447;49.446;8.666;2023-05-20T05:38:37;100499.50;;;14.34;66.04
74895;BME280;63447;49.446;8.666;2023-05-20T05:41:02;100494.19;;;14.41;66.66
74895;BME280;63447;49.446;8.666;2023-05-20T05:43:33;100491.00;;;14.54;66.04
74895;BME280;63447;49.446;8.666;2023-05-20T05:45:58;100494.50;;;14.67;65.55
74895;BME280;63447;49.446;8.666;2023-05-20T05:48:24;100491.72;;;14.83;65.76
74895;BME280;63447;49.446;8.666;2023-05-20T05:50:49;100484.84;;;14.92;65.06
74895;BME280;63447;49.446;8.666;2023-05-20T05:53:17;100504.13;;;15.01;65.44
74895;BME280;63447;49.446;8.666;2023-05-20T05:55:44;100489.47;;;15.20;64.79
74895;BME280;63447;49.446;8.666;2023-05-20T05:58:10;100485.81;;;15.32;64.30
74895;BME280;63447;49.446;8.666;2023-05-20T06:00:36;100482.63;;;15.49;64.71
74895;BME280;63447;49.446;8.666;2023-05-20T06:03:01;100492.03;;;15.60;64.97
74895;BME280;63447;49.446;8.666;2023-05-20T06:05:29;100474.78;;;15.70;64.43
74895;BME280;63447;49.446;8.666;2023-05-20T06:07:57;100474.88;;;15.93;63.43
74895;BME280;63447;49.446;8.666;2023-05-20T06:10:22;100479.56;;;16.08;62.50
74895;BME280;63447;49.446;8.666;2023-05-20T06:12:47;100464.53;;;16.13;63.44
74895;BME280;63447;49.446;8.666;2023-05-20T06:15:13;100473.63;;;16.29;63.51
74895;BME280;63447;49.446;8.666;2023-05-20T06:17:38;100491.63;;;16.54;61.79
74895;BME280;63447;49.446;8.666;2023-05-20T06:20:04;100481.94;;;16.48;61.48
74895;BME280;63447;49.446;8.666;2023-05-20T06:22:29;100487.56;;;16.71;60.28
74895;BME280;63447;49.446;8.666;2023-05-20T06:24:55;100485.84;;;16.86;60.32
74895;BME280;63447;49.446;8.666;2023-05-20T06:27:29;100489.41;;;16.63;60.86
74895;BME280;63447;49.446;8.666;2023-05-20T06:29:58;100468.00;;;16.68;60.38
74895;BME280;63447;49.446;8.666;2023-05-20T06:32:23;100491.06;;;16.87;60.18
74895;BME280;63447;49.446;8.666;2023-05-20T06:34:50;100480.50;;;17.00;60.01
74895;BME280;63447;49.446;8.666;2023-05-20T06:37:21;100488.56;;;17.05;60.29
74895;BME280;63447;49.446;8.666;2023-05-20T06:39:50;100477.28;;;16.98;59.58
74895;BME280;63447;49.446;8.666;2023-05-20T06:42:20;100480.94;;;17.02;59.82
74895;BME280;63447;49.446;8.666;2023-05-20T06:44:46;100480.19;;;17.05;60.57
74895;BME280;63447;49.446;8.666;2023-05-20T06:47:15;100478.09;;;16.76;60.81
74895;BME280;63447;49.446;8.666;2023-05-20T06:49:43;100471.97;;;16.89;59.00
74895;BME280;63447;49.446;8.666;2023-05-20T06:52:09;100473.13;;;17.11;59.64
74895;BME280;63447;49.446;8.666;2023-05-20T06:54:37;100452.88;;;17.14;58.87
74895;BME280;63447;49.446;8.666;2023-05-20T06:57:06;100471.13;;;17.35;59.23
74895;BME280;63447;49.446;8.666;2023-05-20T06:59:32;100486.56;;;17.28;59.41
74895;BME280;63447;49.446;8.666;2023-05-20T07:02:00;100466.47;;;17.19;59.73
74895;BME280;63447;49.446;8.666;2023-05-20T07:04:28;100470.81;;;17.43;58.58
74895;BME280;63447;49.446;8.666;2023-05-20T07:06:53;100479.75;;;17.52;58.27
74895;BME280;63447;49.446;8.666;2023-05-20T07:09:19;100468.03;;;17.43;59.24
74895;BME280;63447;49.446;8.666;2023-05-20T07:11:46;100458.75;;;17.62;58.61
74895;BME280;63447;49.446;8.666;2023-05-20T07:14:12;100452.16;;;17.74;57.09
74895;BME280;63447;49.446;8.666;2023-05-20T07:16:38;100453.84;;;18.12;58.20
74895;BME280;63447;49.446;8.666;2023-05-20T07:19:06;100448.16;;;18.38;56.35
74895;BME280;63447;49.446;8.666;2023-05-20T07:21:36;100445.97;;;18.58;55.84
74895;BME280;63447;49.446;8.666;2023-05-20T07:24:01;100453.81;;;18.82;56.07
74895;BME280;63447;49.446;8.666;2023-05-20T07:26:32;100431.06;;;18.84;55.34
74895;BME280;63447;49.446;8.666;2023-05-20T07:29:04;100448.94;;;19.20;55.12
74895;BME280;63447;49.446;8.666;2023-05-20T07:31:31;100429.09;;;19.43;53.54
74895;BME280;63447;49.446;8.666;2023-05-20T07:33:59;100443.88;;;19.43;52.71
74895;BME280;63447;49.446;8.666;2023-05-20T07:36:29;100430.25;;;19.38;52.93
74895;BME280;63447;49.446;8.666;2023-05-20T07:38:54;100446.75;;;19.54;53.28
74895;BME280;63447;49.446;8.666;2023-05-20T07:41:22;100434.47;;;19.11;53.85
74895;BME280;63447;49.446;8.666;2023-05-20T07:43:51;100428.59;;;19.30;53.82
74895;BME280;63447;49.446;8.666;2023-05-20T07:46:16;100418.97;;;19.20;54.12
74895;BME280;63447;49.446;8.666;2023-05-20T07:48:44;100419.06;;;19.38;52.98
74895;BME280;63447;49.446;8.666;2023-05-20T07:51:20;100411.53;;;19.49;53.27
74895;BME280;63447;49.446;8.666;2023-05-20T07:53:48;100409.31;;;19.83;52.63
74895;BME280;63447;49.446;8.666;2023-05-20T07:56:13;100413.00;;;19.98;52.29
74895;BME280;63447;49.446;8.666;2023-05-20T08:01:16;100424.16;;;19.91;52.18
74895;BME280;63447;49.446;8.666;2023-05-20T08:03:41;100424.56;;;19.89;52.09
74895;BME280;63447;49.446;8.666;2023-05-20T08:06:09;100411.00;;;20.06;51.13
74895;BME280;63447;49.446;8.666;2023-05-20T08:08:40;100419.53;;;20.45;49.54
74895;BME280;63447;49.446;8.666;2023-05-20T08:11:06;100422.78;;;20.50;50.71
74895;BME280;63447;49.446;8.666;2023-05-20T08:13:31;100410.34;;;20.48;49.76
74895;BME280;63447;49.446;8.666;2023-05-20T08:15:59;100423.56;;;20.54;50.84
74895;BME280;63447;49.446;8.666;2023-05-20T08:18:25;100429.03;;;20.15;51.32
74895;BME280;63447;49.446;8.666;2023-05-20T08:20:54;100412.66;;;20.21;50.76
74895;BME280;63447;49.446;8.666;2023-05-20T08:23:19;100415.00;;;19.97;51.27
74895;BME280;63447;49.446;8.666;2023-05-20T08:25:46;100405.28;;;19.77;50.88
74895;BME280;63447;49.446;8.666;2023-05-20T08:28:12;100421.00;;;20.07;51.64
74895;BME280;63447;49.446;8.666;2023-05-20T08:30:40;100417.00;;;20.04;50.33
74895;BME280;63447;49.446;8.666;2023-05-20T08:33:07;100406.91;;;19.78;50.65
74895;BME280;63447;49.446;8.666;2023-05-20T08:35:36;100417.75;;;19.90;51.03
74895;BME280;63447;49.446;8.666;2023-05-20T08:38:04;100420.19;;;19.99;50.71
74895;BME280;63447;49.446;8.666;2023-05-20T08:40:29;100406.25;;;20.31;52.40
74895;BME280;63447;49.446;8.666;2023-05-20T08:42:57;100411.56;;;20.72;50.84
74895;BME280;63447;49.446;8.666;2023-05-20T08:45:26;100412.38;;;20.90;50.31
74895;BME280;63447;49.446;8.666;2023-05-20T08:47:53;100398.34;;;20.97;49.77
74895;BME280;63447;49.446;8.666;2023-05-20T08:50:18;100391.09;;;21.10;50.07
74895;BME280;63447;49.446;8.666;2023-05-20T08:52:45;100405.97;;;21.00;47.69
74895;BME280;63447;49.446;8.666;2023-05-20T08:55:16;100392.69;;;21.18;47.93
74895;BME280;63447;49.446;8.666;2023-05-20T08:57:48;100381.06;;;21.09;49.89
74895;BME280;63447;49.446;8.666;2023-05-20T09:00:14;100395.53;;;20.90;47.82
74895;BME280;63447;49.446;8.666;2023-05-20T09:02:41;100392.72;;;21.04;48.07
74895;BME280;63447;49.446;8.666;2023-05-20T09:05:09;100392.72;;;20.97;47.88
74895;BME280;63447;49.446;8.666;2023-05-20T09:07:35;100386.28;;;21.18;47.78
74895;BME280;63447;49.446;8.666;2023-05-20T09:10:00;100363.44;;;21.16;46.83
74895;BME280;63447;49.446;8.666;2023-05-20T09:12:30;100382.31;;;21.22;46.99
74895;BME280;63447;49.446;8.666;2023-05-20T09:14:56;100366.66;;;21.14;46.94
74895;BME280;63447;49.446;8.666;2023-05-20T09:17:22;100380.63;;;21.43;48.28
74895;BME280;63447;49.446;8.666;2023-05-20T09:19:52;100383.75;;;21.73;47.46
74895;BME280;63447;49.446;8.666;2023-05-20T09:22:24;100372.13;;;21.71;45.84
74895;BME280;63447;49.446;8.666;2023-05-20T09:24:50;100386.88;;;21.89;45.71
74895;BME280;63447;49.446;8.666;2023-05-20T09:27:17;100379.78;;;21.60;46.30
74895;BME280;63447;49.446;8.666;2023-05-20T09:29:50;100370.53;;;21.70;46.46
74895;BME280;63447;49.446;8.666;2023-05-20T09:32:16;100377.72;;;21.78;47.74
74895;BME280;63447;49.446;8.666;2023-05-20T09:34:47;100372.69;;;22.21;46.69
74895;BME280;63447;49.446;8.666;2023-05-20T09:37:20;100364.09;;;22.43;45.40
74895;BME280;63447;49.446;8.666;2023-05-20T09:39:54;100360.75;;;22.03;45.16
74895;BME280;63447;49.446;8.666;2023-05-20T09:42:24;100371.97;;;22.07;46.74
74895;BME280;63447;49.446;8.666;2023-05-20T09:44:54;100331.56;;;21.79;45.77
74895;BME280;63447;49.446;8.666;2023-05-20T09:47:24;100350.75;;;21.88;45.66
74895;BME280;63447;49.446;8.666;2023-05-20T09:49:56;100347.94;;;21.91;44.57
74895;BME280;63447;49.446;8.666;2023-05-20T09:52:21;100368.59;;;22.33;45.87
74895;BME280;63447;49.446;8.666;2023-05-20T09:54:48;100366.03;;;22.56;44.74
74895;BME280;63447;49.446;8.666;2023-05-20T09:57:14;100357.38;;;22.33;46.69
74895;BME280;63447;49.446;8.666;2023-05-20T09:59:40;100361.69;;;22.93;45.38
74895;BME280;63447;49.446;8.666;2023-05-20T10:02:06;100366.56;;;23.30;42.76
74895;BME280;63447;49.446;8.666;2023-05-20T10:04:34;100371.16;;;23.13;42.16
74895;BME280;63447;49.446;8.666;2023-05-20T10:12:33;100355.66;;;23.35;41.81
74895;BME280;63447;49.446;8.666;2023-05-20T10:15:20;100346.19;;;23.15;42.92
74895;BME280;63447;49.446;8.666;2023-05-20T10:20:45;100360.25;;;22.78;44.17
74895;BME280;63447;49.446;8.666;2023-05-20T10:23:23;100357.44;;;22.78;43.95
74895;BME280;63447;49.446;8.666;2023-05-20T10:25:56;100342.47;;;23.25;43.46
74895;BME280;63447;49.446;8.666;2023-05-20T10:28:28;100341.00;;;23.48;42.45
74895;BME280;63447;49.446;8.666;2023-05-20T10:30:54;100338.13;;;23.55;41.28
74895;BME280;63447;49.446;8.666;2023-05-20T10:33:20;100324.19;;;23.41;42.53
74895;BME280;63447;49.446;8.666;2023-05-20T10:35:57;100294.66;;;23.56;43.50
74895;BME280;63447;49.446;8.666;2023-05-20T10:38:23;100311.69;;;24.06;41.95
74895;BME280;63447;49.446;8.666;2023-05-20T10:40:48;100315.00;;;23.97;42.22
74895;BME280;63447;49.446;8.666;2023-05-20T10:43:27;100319.31;;;24.83;41.50
74895;BME280;63447;49.446;8.666;2023-05-20T10:45:58;100312.56;;;25.00;40.41
74895;BME280;63447;49.446;8.666;2023-05-20T10:48:31;100308.56;;;24.51;40.17
74895;BME280;63447;49.446;8.666;2023-05-20T10:51:01;100291.03;;;23.86;41.06
74895;BME280;63447;49.446;8.666;2023-05-20T10:53:38;100312.56;;;23.73;42.18
74895;BME280;63447;49.446;8.666;2023-05-20T10:56:04;100315.88;;;23.94;41.64
74895;BME280;63447;49.446;8.666;2023-05-20T10:58:36;100311.03;;;24.22;41.04
74895;BME280;63447;49.446;8.666;2023-05-20T11:01:02;100289.06;;;24.10;40.59
74895;BME280;63447;49.446;8.666;2023-05-20T11:03:28;100307.78;;;23.96;40.14
74895;BME280;63447;49.446;8.666;2023-05-20T11:05:53;100286.34;;;23.42;42.58
74895;BME280;63447;49.446;8.666;2023-05-20T11:08:21;100291.19;;;24.02;39.51
74895;BME280;63447;49.446;8.666;2023-05-20T11:10:49;100306.97;;;23.69;40.91
74895;BME280;63447;49.446;8.666;2023-05-20T11:13:14;100314.88;;;24.08;41.30
74895;BME280;63447;49.446;8.666;2023-05-20T11:15:40;100297.28;;;24.27;41.54
74895;BME280;63447;49.446;8.666;2023-05-20T11:18:09;100281.53;;;24.53;40.13
74895;BME280;63447;49.446;8.666;2023-05-20T11:20:37;100298.06;;;24.28;41.79
74895;BME280;63447;49.446;8.666;2023-05-20T11:23:05;100301.03;;;24.91;39.09
74895;BME280;63447;49.446;8.666;2023-05-20T11:25:31;100296.69;;;24.40;40.26
74895;BME280;63447;49.446;8.666;2023-05-20T11:27:58;100275.09;;;24.02;40.76
74895;BME280;63447;49.446;8.666;2023-05-20T11:30:23;100294.81;;;24.02;40.02
74895;BME280;63447;49.446;8.666;2023-05-20T11:32:57;100295.53;;;23.49;41.23
74895;BME280;63447;49.446;8.666;2023-05-20T11:35:24;100279.97;;;23.72;41.42
74895;BME280;63447;49.446;8.666;2023-05-20T11:37:56;100297.56;;;23.79;42.20
74895;BME280;63447;49.446;8.666;2023-05-20T11:40:26;100269.16;;;23.36;42.37
74895;BME280;63447;49.446;8.666;2023-05-20T11:42:55;100285.56;;;23.75;41.54
74895;BME280;63447;49.446;8.666;2023-05-20T11:45:24;100285.34;;;23.62;40.74
74895;BME280;63447;49.446;8.666;2023-05-20T11:48:02;100254.56;;;24.29;39.59
74895;BME280;63447;49.446;8.666;2023-05-20T11:50:33;100277.75;;;25.07;37.55
74895;BME280;63447;49.446;8.666;2023-05-20T11:53:01;100279.34;;;25.27;39.20
74895;BME280;63447;49.446;8.666;2023-05-20T11:55:27;100271.41;;;24.56;40.27
74895;BME280;63447;49.446;8.666;2023-05-20T11:57:53;100276.59;;;24.81;39.01
74895;BME280;63447;49.446;8.666;2023-05-20T12:00:24;100277.13;;;24.29;41.05
74895;BME280;63447;49.446;8.666;2023-05-20T12:02:52;100283.91;;;24.05;40.78
74895;BME280;63447;49.446;8.666;2023-05-20T12:05:17;100269.22;;;23.63;40.74
74895;BME280;63447;49.446;8.666;2023-05-20T12:07:43;100270.16;;;23.19;40.57
74895;BME280;63447;49.446;8.666;2023-05-20T12:10:11;100274.41;;;23.34;42.20
74895;BME280;63447;49.446;8.666;2023-05-20T12:12:38;100258.16;;;23.45;41.01
74895;BME280;63447;49.446;8.666;2023-05-20T12:15:04;100270.28;;;23.73;40.85
74895;BME280;63447;49.446;8.666;2023-05-20T12:17:33;100255.47;;;23.38;41.81
74895;BME280;63447;49.446;8.666;2023-05-20T12:19:58;100270.56;;;24.09;40.17
74895;BME280;63447;49.446;8.666;2023-05-20T12:22:24;100267.53;;;23.96;40.71
74895;BME280;63447;49.446;8.666;2023-05-20T12:24:49;100279.38;;;23.57;40.29
74895;BME280;63447;49.446;8.666;2023-05-20T12:27:15;100278.41;;;23.02;41.67
74895;BME280;63447;49.446;8.666;2023-05-20T12:29:40;100264.25;;;23.10;41.16
74895;BME280;63447;49.446;8.666;2023-05-20T12:32:06;100265.91;;;23.04;41.41
74895;BME280;63447;49.446;8.666;2023-05-20T12:34:31;100248.19;;;23.07;41.52
74895;BME280;63447;49.446;8.666;2023-05-20T12:36:59;100261.78;;;23.46;41.01
74895;BME280;63447;49.446;8.666;2023-05-20T12:39:27;100260.72;;;23.36;42.30
74895;BME280;63447;49.446;8.666;2023-05-20T12:41:55;100236.75;;;23.51;41.76
74895;BME280;63447;49.446;8.666;2023-05-20T12:44:25;100242.78;;;24.34;40.86
74895;BME280;63447;49.446;8.666;2023-05-20T12:46:53;100257.00;;;24.50;40.33
74895;BME280;63447;49.446;8.666;2023-05-20T12:49:19;100235.75;;;25.28;39.14
74895;BME280;63447;49.446;8.666;2023-05-20T12:51:46;100255.06;;;25.50;38.80
74895;BME280;63447;49.446;8.666;2023-05-20T12:54:12;100248.16;;;25.15;38.65
74895;BME280;63447;49.446;8.666;2023-05-20T12:56:42;100255.88;;;25.30;37.57
74895;BME280;63447;49.446;8.666;2023-05-20T12:59:11;100243.53;;;26.29;36.21
74895;BME280;63447;49.446;8.666;2023-05-20T13:01:37;100240.22;;;25.65;37.42
74895;BME280;63447;49.446;8.666;2023-05-20T13:04:02;100246.84;;;25.19;38.37